Time;durP1;ratioP1;P1;durP2;ratioP2;P2;SDS_P1;SDS_P2;PMS_P1;PMS_P2;Temp;Humidity;BMP_temperature;BMP_pressure;BME280_temperature;BME280_humidity;BME280_pressure;Samples;Min_cycle;Max_cycle;Signal;HPM_P1;HPM_P2
2022/06/28 00:02:24;;;;;;;0.90;0.70;;;13.20;99.90;;;;;;5071749;28;20536;-72
2022/06/28 00:04:49;;;;;;;1.20;0.90;;;13.20;99.90;;;;;;5072252;28;20170;-72
2022/06/28 00:07:15;;;;;;;1.00;0.70;;;13.20;99.90;;;;;;5074967;28;20162;-71
2022/06/28 00:09:41;;;;;;;1.37;0.83;;;13.20;99.90;;;;;;5075122;28;20184;-71
2022/06/28 00:12:07;;;;;;;1.10;1.00;;;13.20;99.90;;;;;;5075106;28;20204;-72
2022/06/28 00:17:17;;;;;;;1.60;1.10;;;13.20;99.90;;;;;;5073843;28;20419;-72
2022/06/28 00:19:42;;;;;;;1.00;0.70;;;13.20;99.90;;;;;;5074270;28;20412;-73
2022/06/28 00:22:08;;;;;;;1.73;1.07;;;13.20;99.90;;;;;;5074840;28;20170;-73
2022/06/28 00:24:33;;;;;;;1.10;0.80;;;13.20;99.90;;;;;;5074614;28;20173;-72
2022/06/28 00:26:59;;;;;;;1.10;0.97;;;13.20;99.90;;;;;;5074534;28;20194;-72
2022/06/28 00:29:24;;;;;;;1.20;0.90;;;13.20;99.90;;;;;;5074393;28;20174;-72
2022/06/28 00:31:50;;;;;;;1.30;0.80;;;13.20;99.90;;;;;;5074448;28;20178;-72
2022/06/28 00:34:15;;;;;;;2.40;1.17;;;13.20;99.90;;;;;;5074089;28;20170;-70
2022/06/28 00:36:41;;;;;;;1.27;1.17;;;13.10;99.90;;;;;;5074555;28;20676;-72
2022/06/28 00:39:07;;;;;;;1.63;0.90;;;13.10;99.90;;;;;;5074438;28;20191;-72
2022/06/28 00:41:34;;;;;;;1.10;1.00;;;13.10;99.90;;;;;;5074610;28;20976;-72
2022/06/28 00:44:01;;;;;;;1.30;1.00;;;13.10;99.90;;;;;;5074399;28;20162;-73
2022/06/28 00:46:27;;;;;;;1.63;0.90;;;13.10;99.90;;;;;;5072771;28;20423;-72
2022/06/28 00:48:52;;;;;;;1.27;0.80;;;13.10;99.90;;;;;;5074117;28;20424;-72
2022/06/28 00:51:18;;;;;;;1.23;1.00;;;13.10;99.90;;;;;;5074002;28;20292;-72
2022/06/28 00:53:44;;;;;;;1.10;0.90;;;13.10;99.90;;;;;;5072805;28;20194;-72
2022/06/28 00:56:10;;;;;;;1.30;1.20;;;13.10;99.90;;;;;;5073814;28;20251;-72
2022/06/28 00:58:35;;;;;;;1.10;0.83;;;13.10;99.90;;;;;;5073981;28;20187;-72
2022/06/28 01:01:01;;;;;;;1.30;1.00;;;13.10;99.90;;;;;;5073971;28;20397;-73
2022/06/28 01:03:27;;;;;;;1.40;1.30;;;13.10;99.90;;;;;;5074072;28;20198;-70
2022/06/28 01:05:53;;;;;;;1.30;1.03;;;13.10;99.90;;;;;;5072237;28;20228;-73
2022/06/28 01:08:19;;;;;;;1.20;0.80;;;13.10;99.90;;;;;;5072697;28;20444;-72
2022/06/28 01:10:45;;;;;;;1.40;0.90;;;13.00;99.90;;;;;;5073854;28;20185;-73
2022/06/28 01:13:12;;;;;;;1.10;0.90;;;13.00;99.90;;;;;;5073820;28;20178;-71
2022/06/28 01:15:40;;;;;;;1.37;0.87;;;13.00;99.90;;;;;;5072738;28;20458;-72
2022/06/28 01:18:07;;;;;;;1.10;0.90;;;13.00;99.90;;;;;;5072146;28;20443;-71
2022/06/28 01:20:33;;;;;;;1.00;0.67;;;13.00;99.90;;;;;;5072357;28;20454;-73
2022/06/28 01:22:59;;;;;;;1.10;0.90;;;12.90;99.90;;;;;;5073552;28;20899;-72
2022/06/28 01:25:25;;;;;;;1.50;1.10;;;12.90;99.90;;;;;;5072094;28;20465;-72
2022/06/28 01:27:53;;;;;;;1.57;1.33;;;12.90;99.90;;;;;;5073483;28;20511;-72
2022/06/28 01:30:18;;;;;;;1.10;0.90;;;12.90;99.90;;;;;;5073436;28;20239;-71
2022/06/28 01:32:45;;;;;;;1.30;1.20;;;12.90;99.90;;;;;;5073277;28;20412;-72
2022/06/28 01:35:11;;;;;;;1.07;0.80;;;12.90;99.90;;;;;;5071710;28;20918;-72
2022/06/28 01:37:37;;;;;;;1.17;1.03;;;12.90;99.90;;;;;;5073261;28;20509;-72
2022/06/28 01:40:04;;;;;;;1.47;1.03;;;12.80;99.90;;;;;;5073292;28;20401;-72
2022/06/28 01:42:30;;;;;;;1.20;0.90;;;12.80;99.90;;;;;;5073098;28;20413;-72
2022/06/28 01:44:58;;;;;;;1.03;0.90;;;12.80;99.90;;;;;;5072867;28;20441;-72
2022/06/28 01:47:26;;;;;;;1.50;0.97;;;12.80;99.90;;;;;;5071680;28;20831;-72
2022/06/28 01:49:52;;;;;;;1.20;0.70;;;12.80;99.90;;;;;;5072897;28;20416;-70
2022/06/28 01:52:18;;;;;;;1.20;0.83;;;12.80;99.90;;;;;;5072859;28;20412;-72
2022/06/28 01:54:44;;;;;;;1.10;0.80;;;12.80;99.90;;;;;;5071369;28;20472;-73
2022/06/28 01:57:10;;;;;;;1.40;0.90;;;12.80;99.90;;;;;;5073137;28;20570;-72
2022/06/28 01:59:39;;;;;;;1.20;0.90;;;12.80;99.90;;;;;;5071579;28;20170;-72
2022/06/28 02:02:05;;;;;;;1.23;0.87;;;12.70;99.90;;;;;;5072732;28;20412;-72
2022/06/28 02:04:31;;;;;;;1.33;1.00;;;12.70;99.90;;;;;;5072277;28;20458;-72
2022/06/28 02:06:58;;;;;;;1.10;0.93;;;12.70;99.90;;;;;;5072710;28;20409;-72
2022/06/28 02:09:24;;;;;;;1.10;0.90;;;12.70;99.90;;;;;;5072665;28;20249;-72
2022/06/28 02:11:50;;;;;;;1.00;0.70;;;12.70;99.90;;;;;;5072893;28;20895;-73
2022/06/28 02:14:16;;;;;;;1.10;0.97;;;12.70;99.90;;;;;;5072125;28;20423;-71
2022/06/28 02:16:42;;;;;;;1.33;1.23;;;12.70;99.90;;;;;;5072464;28;20400;-72
2022/06/28 02:19:08;;;;;;;1.10;1.00;;;12.70;99.90;;;;;;5072346;28;20193;-73
2022/06/28 02:21:39;;;;;;;1.50;1.30;;;12.70;99.90;;;;;;5071523;28;20400;-73
2022/06/28 02:24:05;;;;;;;1.87;0.80;;;12.70;99.90;;;;;;5072389;28;20155;-73
2022/06/28 02:26:32;;;;;;;1.20;0.93;;;12.70;99.90;;;;;;5071779;28;20503;-72
2022/06/28 02:28:59;;;;;;;1.63;1.53;;;12.70;99.90;;;;;;5071356;28;20450;-72
2022/06/28 02:31:24;;;;;;;1.40;1.30;;;12.70;99.90;;;;;;5071021;28;20919;-72
2022/06/28 02:33:50;;;;;;;1.07;0.87;;;12.70;99.90;;;;;;5072213;28;20405;-72
2022/06/28 02:40:21;;;;;;;1.00;0.80;;;12.70;99.90;;;;;;5072139;28;20193;-72
2022/06/28 02:41:55;;;;;;;1.20;0.90;;;12.60;99.90;;;;;;5072067;28;20760;-72
2022/06/28 02:44:21;;;;;;;1.17;0.97;;;12.60;99.90;;;;;;5071826;28;20855;-72
2022/06/28 02:46:47;;;;;;;1.93;1.60;;;12.60;99.90;;;;;;5072148;28;20482;-72
2022/06/28 02:49:14;;;;;;;3.20;1.30;;;12.60;99.90;;;;;;5071889;28;20938;-73
2022/06/28 02:51:40;;;;;;;1.00;0.80;;;12.60;99.90;;;;;;5072050;28;20411;-73
2022/06/28 02:54:06;;;;;;;1.10;0.90;;;12.50;99.90;;;;;;5071778;28;20420;-70
2022/06/28 02:56:31;;;;;;;1.83;1.10;;;12.50;99.90;;;;;;5071671;28;20497;-73
2022/06/28 02:58:57;;;;;;;2.20;1.33;;;12.50;99.90;;;;;;5071850;28;20213;-73
2022/06/28 03:01:22;;;;;;;1.87;1.47;;;12.50;99.90;;;;;;5071980;28;20166;-72
2022/06/28 03:03:48;;;;;;;1.10;1.00;;;12.40;99.90;;;;;;5071882;28;20170;-71
2022/06/28 03:06:13;;;;;;;1.63;1.23;;;12.40;99.90;;;;;;5071550;28;20166;-72
2022/06/28 03:08:39;;;;;;;1.83;1.17;;;12.40;99.90;;;;;;5071701;28;20260;-72
2022/06/28 03:11:05;;;;;;;0.93;0.73;;;12.40;99.90;;;;;;5071882;28;20166;-72
2022/06/28 03:13:30;;;;;;;1.60;1.10;;;12.40;99.90;;;;;;5070510;28;20272;-71
2022/06/28 03:15:56;;;;;;;1.40;1.20;;;12.30;99.90;;;;;;5070118;28;20202;-73
2022/06/28 03:18:22;;;;;;;1.10;1.00;;;12.30;99.90;;;;;;5071636;28;20178;-73
2022/06/28 03:20:47;;;;;;;1.20;1.07;;;12.30;99.90;;;;;;5071526;28;20166;-72
2022/06/28 03:23:13;;;;;;;1.40;1.20;;;12.20;99.90;;;;;;5071447;28;20633;-72
2022/06/28 03:25:38;;;;;;;2.03;1.20;;;12.20;99.90;;;;;;5071452;28;20216;-73
2022/06/28 03:28:04;;;;;;;1.30;1.20;;;12.20;99.90;;;;;;5071590;28;20546;-72
2022/06/28 03:30:33;;;;;;;1.37;1.27;;;12.20;99.90;;;;;;5070434;28;20253;-73
2022/06/28 03:32:59;;;;;;;1.30;1.17;;;12.20;99.90;;;;;;5071614;28;20645;-72
2022/06/28 03:35:24;;;;;;;1.10;0.80;;;12.20;99.90;;;;;;5071240;28;20451;-73
2022/06/28 03:37:50;;;;;;;1.20;0.90;;;12.20;99.90;;;;;;5071477;28;20194;-73
2022/06/28 03:40:16;;;;;;;1.57;0.97;;;12.20;99.90;;;;;;5074595;28;20158;-72
2022/06/28 03:42:41;;;;;;;1.20;0.77;;;12.20;99.90;;;;;;5075547;28;20184;-72
2022/06/28 03:45:07;;;;;;;1.10;0.80;;;12.20;99.90;;;;;;5075092;28;20166;-73
2022/06/28 03:47:33;;;;;;;1.70;1.23;;;12.20;99.90;;;;;;5075284;28;20276;-72
2022/06/28 03:49:58;;;;;;;1.10;0.90;;;12.20;99.90;;;;;;5075298;28;20250;-73
2022/06/28 03:52:28;;;;;;;1.23;1.03;;;12.20;99.90;;;;;;5073962;28;20181;-72
2022/06/28 03:54:58;;;;;;;1.10;0.77;;;12.20;99.90;;;;;;5074821;28;20251;-71
2022/06/28 03:57:25;;;;;;;1.97;1.07;;;12.20;99.90;;;;;;5075173;28;20950;-71
2022/06/28 03:59:51;;;;;;;1.23;0.90;;;12.20;99.90;;;;;;5075129;28;20454;-72
2022/06/28 04:02:17;;;;;;;3.00;1.23;;;12.20;99.90;;;;;;5075003;28;20427;-73
2022/06/28 04:04:42;;;;;;;1.40;1.00;;;12.20;99.90;;;;;;5073490;28;20691;-74
2022/06/28 04:07:08;;;;;;;1.30;1.00;;;12.30;99.90;;;;;;5074948;28;20163;-70
2022/06/28 04:09:33;;;;;;;1.57;1.13;;;12.30;99.90;;;;;;5073703;28;20173;-70
2022/06/28 04:11:59;;;;;;;1.37;1.27;;;12.30;99.90;;;;;;5073649;28;20664;-69
2022/06/28 04:14:25;;;;;;;2.27;1.43;;;12.40;99.90;;;;;;5074615;28;20158;-70
2022/06/28 04:16:50;;;;;;;1.10;0.90;;;12.40;99.90;;;;;;5074781;28;20178;-71
2022/06/28 04:19:16;;;;;;;1.77;1.30;;;12.40;99.90;;;;;;5074692;28;20251;-72
2022/06/28 04:21:41;;;;;;;1.40;1.00;;;12.50;99.90;;;;;;5074676;28;20163;-74
2022/06/28 04:24:07;;;;;;;1.00;0.90;;;12.50;99.90;;;;;;5074701;28;20162;-73
2022/06/28 04:26:33;;;;;;;1.10;1.00;;;12.50;99.90;;;;;;5073072;28;20185;-73
2022/06/28 04:28:59;;;;;;;1.20;1.03;;;12.60;99.90;;;;;;5074633;28;20269;-73
2022/06/28 04:31:25;;;;;;;1.60;1.30;;;12.60;99.90;;;;;;5074416;28;20495;-73
2022/06/28 04:33:50;;;;;;;1.23;0.93;;;12.70;99.90;;;;;;5074522;28;20178;-73
2022/06/28 04:36:16;;;;;;;1.43;0.93;;;12.70;99.90;;;;;;5074126;28;20197;-74
2022/06/28 04:38:42;;;;;;;1.00;0.80;;;12.80;99.90;;;;;;5074423;28;20668;-71
2022/06/28 04:41:07;;;;;;;1.50;1.27;;;12.90;99.90;;;;;;5073112;28;20167;-71
2022/06/28 04:43:33;;;;;;;1.20;0.97;;;12.90;99.90;;;;;;5074292;28;20173;-71
2022/06/28 04:45:59;;;;;;;1.13;0.97;;;13.00;99.90;;;;;;5074037;28;20253;-71
2022/06/28 04:48:25;;;;;;;0.90;0.60;;;13.00;99.90;;;;;;5074090;28;20186;-70
2022/06/28 04:50:50;;;;;;;1.30;0.90;;;13.10;99.90;;;;;;5073183;28;21015;-70
2022/06/28 04:53:16;;;;;;;2.67;1.57;;;13.10;99.90;;;;;;5074083;28;20558;-72
2022/06/28 04:55:41;;;;;;;1.10;0.80;;;13.20;99.90;;;;;;5072494;28;20564;-73
2022/06/28 04:58:07;;;;;;;1.00;0.80;;;13.30;99.90;;;;;;5073937;28;20186;-73
2022/06/28 05:00:33;;;;;;;1.60;1.30;;;13.40;99.90;;;;;;5074079;28;20181;-71
2022/06/28 05:02:58;;;;;;;1.10;1.00;;;13.40;99.90;;;;;;5073797;28;20163;-71
2022/06/28 05:05:24;;;;;;;1.43;1.13;;;13.50;99.90;;;;;;5073625;28;20162;-71
2022/06/28 05:07:49;;;;;;;1.97;1.60;;;13.60;99.90;;;;;;5073714;28;20269;-71
2022/06/28 05:10:15;;;;;;;2.00;1.60;;;13.60;99.90;;;;;;5073822;28;20199;-71
2022/06/28 05:12:40;;;;;;;6.10;3.03;;;13.70;99.90;;;;;;5073666;28;20236;-71
2022/06/28 05:15:06;;;;;;;1.90;1.67;;;13.80;99.90;;;;;;5073369;28;20198;-71
2022/06/28 05:17:32;;;;;;;1.73;1.63;;;13.90;99.90;;;;;;5073522;28;20214;-72
2022/06/28 05:19:57;;;;;;;2.20;2.00;;;13.90;99.90;;;;;;5072385;28;20963;-71
2022/06/28 05:22:23;;;;;;;1.77;1.60;;;14.00;99.90;;;;;;5073568;28;20166;-72
2022/06/28 05:24:49;;;;;;;1.70;1.40;;;14.10;99.90;;;;;;5073428;28;20166;-72
2022/06/28 05:27:15;;;;;;;2.27;1.80;;;14.20;99.90;;;;;;5073556;28;20546;-71
2022/06/28 05:29:40;;;;;;;1.80;1.20;;;14.30;99.90;;;;;;5073594;28;20204;-72
2022/06/28 05:32:06;;;;;;;2.27;1.70;;;14.40;99.90;;;;;;5073527;28;20170;-72
2022/06/28 05:34:32;;;;;;;2.13;1.40;;;14.50;99.90;;;;;;5071625;28;20177;-71
2022/06/28 05:36:57;;;;;;;1.50;1.37;;;14.60;99.90;;;;;;5073411;28;20405;-72
2022/06/28 05:39:23;;;;;;;1.10;1.00;;;14.70;99.90;;;;;;5073338;28;20523;-69
2022/06/28 05:41:48;;;;;;;1.10;1.00;;;14.80;99.90;;;;;;5073295;28;20667;-70
2022/06/28 05:44:15;;;;;;;3.83;1.90;;;14.90;99.90;;;;;;5072837;28;20196;-73
2022/06/28 05:46:41;;;;;;;2.73;1.90;;;15.00;99.90;;;;;;5073072;28;20182;-70
2022/06/28 05:49:08;;;;;;;1.80;1.50;;;15.20;99.90;;;;;;5072971;28;20420;-72
2022/06/28 05:51:33;;;;;;;1.67;1.57;;;15.30;99.90;;;;;;5073059;28;20166;-70
2022/06/28 05:53:59;;;;;;;3.30;2.43;;;15.60;99.90;;;;;;5072813;28;20830;-72
2022/06/28 05:56:24;;;;;;;2.60;2.30;;;15.90;99.90;;;;;;5072465;28;20220;-72
2022/06/28 05:58:50;;;;;;;2.20;2.00;;;16.40;99.90;;;;;;5072344;28;20213;-72
2022/06/28 06:01:15;;;;;;;1.93;1.73;;;16.90;99.90;;;;;;5072750;28;20228;-72
2022/06/28 06:03:41;;;;;;;1.40;1.30;;;17.60;99.90;;;;;;5072582;28;20161;-72
2022/06/28 06:06:07;;;;;;;1.67;1.37;;;18.30;99.90;;;;;;5072486;28;20536;-72
2022/06/28 06:08:32;;;;;;;1.70;1.57;;;19.00;99.90;;;;;;5072537;28;20672;-72
2022/06/28 06:10:58;;;;;;;1.77;1.67;;;19.70;99.90;;;;;;5072745;28;20560;-72
2022/06/28 06:13:23;;;;;;;2.27;2.07;;;20.20;99.90;;;;;;5072440;28;20197;-71
2022/06/28 06:15:49;;;;;;;1.70;1.60;;;20.60;99.90;;;;;;5072230;28;20235;-72
2022/06/28 06:18:15;;;;;;;1.87;1.40;;;21.30;99.90;;;;;;5072431;28;20182;-72
2022/06/28 06:20:40;;;;;;;3.03;1.90;;;22.10;99.90;;;;;;5072497;28;20649;-72
2022/06/28 06:23:06;;;;;;;1.87;1.63;;;22.80;99.90;;;;;;5071214;28;20174;-69
2022/06/28 06:25:31;;;;;;;1.57;1.40;;;23.60;99.90;;;;;;5072138;28;20166;-70
2022/06/28 06:27:57;;;;;;;1.17;0.90;;;24.50;99.90;;;;;;5072361;28;20699;-68
2022/06/28 06:30:22;;;;;;;1.20;1.10;;;25.40;99.90;;;;;;5072438;28;20535;-68
2022/06/28 06:32:48;;;;;;;2.07;1.87;;;26.30;99.90;;;;;;5072234;28;20170;-69
2022/06/28 06:35:13;;;;;;;1.00;0.83;;;27.20;99.90;;;;;;5072017;28;20201;-72
2022/06/28 06:37:39;;;;;;;3.10;1.27;;;28.10;99.90;;;;;;5072489;28;20190;-72
2022/06/28 06:40:05;;;;;;;1.97;1.33;;;28.80;99.90;;;;;;5072380;28;20197;-71
2022/06/28 06:42:31;;;;;;;1.10;0.90;;;29.50;99.90;;;;;;5072237;28;20257;-71
2022/06/28 06:44:58;;;;;;;1.10;1.00;;;30.30;99.90;;;;;;5070650;28;20448;-71
2022/06/28 06:47:24;;;;;;;1.10;0.90;;;31.00;99.90;;;;;;5072063;28;20186;-72
2022/06/28 06:49:49;;;;;;;1.50;1.00;;;31.80;99.90;;;;;;5072149;28;20404;-72
2022/06/28 06:52:15;;;;;;;1.00;0.83;;;32.60;99.90;;;;;;5072245;28;20174;-70
2022/06/28 06:54:40;;;;;;;1.90;1.10;;;33.20;99.90;;;;;;5071673;28;20563;-72
2022/06/28 06:57:06;;;;;;;3.77;1.00;;;33.80;97.20;;;;;;5071718;28;20292;-72
2022/06/28 06:59:31;;;;;;;1.30;0.90;;;34.30;85.50;;;;;;5070655;28;20173;-72
2022/06/28 07:01:57;;;;;;;1.67;0.80;;;34.80;73.10;;;;;;5071901;28;20244;-73
2022/06/28 07:04:22;;;;;;;1.10;0.80;;;35.50;67.50;;;;;;5071565;28;20166;-73
2022/06/28 07:06:48;;;;;;;1.00;0.80;;;36.20;65.80;;;;;;5071575;28;20205;-72
2022/06/28 07:09:14;;;;;;;1.20;0.90;;;36.90;64.00;;;;;;5071630;28;20219;-73
2022/06/28 07:11:40;;;;;;;1.30;1.00;;;37.40;58.60;;;;;;5071740;28;20261;-72
2022/06/28 07:14:05;;;;;;;1.53;1.10;;;38.00;55.40;;;;;;5074760;28;20166;-73
2022/06/28 07:16:31;;;;;;;1.57;1.23;;;38.70;54.00;;;;;;5077816;28;20192;-73
2022/06/28 07:18:57;;;;;;;1.00;0.90;;;39.30;52.40;;;;;;5077889;28;20549;-72
2022/06/28 07:21:23;;;;;;;1.20;1.00;;;39.90;50.70;;;;;;5078261;28;20172;-71
2022/06/28 07:23:49;;;;;;;1.20;1.00;;;40.50;48.80;;;;;;5078117;28;20374;-71
2022/06/28 07:26:16;;;;;;;1.00;0.80;;;41.10;48.00;;;;;;5077772;28;20408;-71
2022/06/28 07:28:42;;;;;;;1.10;0.90;;;41.80;46.80;;;;;;5077910;28;20185;-71
2022/06/28 07:31:07;;;;;;;1.20;1.10;;;42.40;44.50;;;;;;5078083;28;20419;-71
2022/06/28 07:33:33;;;;;;;1.10;1.00;;;43.10;43.60;;;;;;5077948;28;20657;-71
2022/06/28 07:35:59;;;;;;;1.10;1.00;;;43.80;43.00;;;;;;5077697;28;20205;-71
2022/06/28 07:38:24;;;;;;;1.20;1.10;;;44.60;42.10;;;;;;5077961;28;20264;-72
2022/06/28 07:40:50;;;;;;;1.10;1.00;;;45.30;41.50;;;;;;5077910;28;20172;-72
2022/06/28 07:43:16;;;;;;;1.40;1.30;;;46.10;40.80;;;;;;5077973;28;20166;-69
2022/06/28 07:45:41;;;;;;;1.40;1.00;;;46.90;39.70;;;;;;5077602;28;20162;-70
2022/06/28 07:48:08;;;;;;;1.37;1.10;;;47.50;37.40;;;;;;5078066;28;20182;-74
2022/06/28 07:53:18;;;;;;;1.63;1.37;;;48.20;32.70;;;;;;5077798;28;20396;-74
2022/06/28 07:55:44;;;;;;;1.53;1.43;;;48.70;32.80;;;;;;5077483;28;20955;-70
2022/06/28 07:58:09;;;;;;;2.80;1.20;;;49.30;31.90;;;;;;5077783;28;20416;-70
2022/06/28 08:00:35;;;;;;;1.37;1.27;;;49.80;31.80;;;;;;5077596;28;20176;-72
2022/06/28 08:03:01;;;;;;;1.43;1.30;;;50.40;31.40;;;;;;5077794;28;20202;-72
2022/06/28 08:05:26;;;;;;;1.30;1.20;;;50.90;30.90;;;;;;5077498;28;20228;-71
2022/06/28 08:07:52;;;;;;;1.40;1.30;;;51.60;30.90;;;;;;5077651;28;20193;-72
2022/06/28 08:10:17;;;;;;;2.00;1.30;;;52.20;30.40;;;;;;5077674;28;20163;-72
2022/06/28 08:12:44;;;;;;;1.30;1.20;;;52.60;30.00;;;;;;5077694;28;20166;-72
2022/06/28 08:15:10;;;;;;;1.70;1.50;;;53.20;29.50;;;;;;5077313;28;20597;-72
2022/06/28 08:17:36;;;;;;;1.40;1.30;;;53.80;29.30;;;;;;5077661;28;20397;-72
2022/06/28 08:20:01;;;;;;;7.00;1.70;;;54.30;29.10;;;;;;5077489;28;20379;-72
2022/06/28 08:22:28;;;;;;;1.70;1.60;;;54.90;28.70;;;;;;5077706;28;20162;-72
2022/06/28 08:24:53;;;;;;;2.43;1.60;;;55.30;28.10;;;;;;5076696;28;20736;-71
2022/06/28 08:27:19;;;;;;;1.90;1.80;;;55.80;27.80;;;;;;5074379;28;20499;-71
2022/06/28 08:29:45;;;;;;;1.90;1.80;;;56.20;27.40;;;;;;5074425;28;20189;-72
2022/06/28 08:32:12;;;;;;;1.80;1.70;;;56.50;27.20;;;;;;5074480;28;20162;-72
2022/06/28 08:34:39;;;;;;;1.70;1.60;;;56.90;26.90;;;;;;5073932;28;20407;-72
2022/06/28 08:37:05;;;;;;;2.03;1.93;;;57.20;26.10;;;;;;5074123;28;20393;-73
2022/06/28 08:39:31;;;;;;;2.30;2.10;;;57.60;25.80;;;;;;5074131;28;20475;-72
2022/06/28 08:42:01;;;;;;;2.63;2.43;;;57.80;25.50;;;;;;5074094;28;20407;-73
2022/06/28 08:44:28;;;;;;;2.63;2.43;;;58.30;25.20;;;;;;5073906;28;20966;-72
2022/06/28 08:46:55;;;;;;;2.53;2.43;;;58.60;25.00;;;;;;5074004;28;20937;-73
2022/06/28 08:49:36;;;;;;;2.50;2.30;;;58.90;24.50;;;;;;5073909;28;20401;-72
2022/06/28 08:52:03;;;;;;;2.50;2.40;;;58.80;23.60;;;;;;5074009;28;20964;-72
2022/06/28 08:54:30;;;;;;;2.73;2.53;;;58.70;23.20;;;;;;5073379;28;20416;-72
2022/06/28 08:56:56;;;;;;;2.27;2.17;;;58.60;23.00;;;;;;5073830;28;20407;-72
2022/06/28 08:59:23;;;;;;;2.23;2.13;;;58.70;23.00;;;;;;5073708;28;20558;-73
2022/06/28 09:01:49;;;;;;;1.97;1.87;;;58.90;23.30;;;;;;5072470;28;20416;-71
2022/06/28 09:04:15;;;;;;;2.47;2.37;;;59.30;23.20;;;;;;5073415;28;20790;-72
2022/06/28 09:06:41;;;;;;;2.50;2.40;;;59.60;23.00;;;;;;5073691;28;20409;-70
2022/06/28 09:09:07;;;;;;;2.20;2.10;;;60.00;22.80;;;;;;5073621;28;20185;-70
2022/06/28 09:11:43;;;;;;;2.50;2.40;;;60.30;23.10;;;;;;5073740;28;20170;-71
2022/06/28 09:14:31;;;;;;;2.50;2.40;;;60.90;23.30;;;;;;5073477;28;20173;-71
2022/06/28 09:16:58;;;;;;;2.73;2.63;;;61.20;22.30;;;;;;5073574;28;20453;-73
2022/06/28 09:19:41;;;;;;;2.40;2.30;;;61.20;22.00;;;;;;5072077;28;20448;-73
2022/06/28 09:22:07;;;;;;;3.10;2.90;;;61.50;22.30;;;;;;5073644;28;20400;-72
2022/06/28 09:24:33;;;;;;;2.90;2.80;;;61.60;21.40;;;;;;5071700;28;20495;-71
2022/06/28 09:27:04;;;;;;;2.67;2.57;;;61.50;21.00;;;;;;5073265;28;20162;-72
2022/06/28 09:29:48;;;;;;;2.70;2.60;;;61.30;21.10;;;;;;5073506;28;20396;-72
2022/06/28 09:32:13;;;;;;;2.93;2.73;;;61.50;21.50;;;;;;5073267;28;20404;-73
2022/06/28 09:34:40;;;;;;;2.60;2.50;;;61.70;21.80;;;;;;5072817;28;20396;-71
2022/06/28 09:37:07;;;;;;;3.10;3.00;;;61.90;21.80;;;;;;5072567;28;20166;-71
2022/06/28 09:39:32;;;;;;;4.30;2.83;;;62.00;21.00;;;;;;5071776;28;20415;-68
2022/06/28 09:42:00;;;;;;;2.90;2.80;;;62.20;21.10;;;;;;5072955;28;20396;-68
2022/06/28 09:44:29;;;;;;;3.57;3.37;;;62.20;21.20;;;;;;5071325;28;20170;-68
2022/06/28 09:46:57;;;;;;;2.80;2.70;;;62.30;21.10;;;;;;5072813;28;20449;-69
2022/06/28 09:49:29;;;;;;;3.00;2.90;;;62.30;21.00;;;;;;5072751;28;20457;-69
2022/06/28 09:51:58;;;;;;;2.70;2.60;;;62.30;21.00;;;;;;5072797;28;20826;-70
2022/06/28 09:54:26;;;;;;;2.87;2.77;;;62.50;21.10;;;;;;5072370;28;20415;-70
2022/06/28 09:56:54;;;;;;;3.87;3.67;;;62.70;21.20;;;;;;5072743;28;20408;-70
2022/06/28 09:59:23;;;;;;;3.43;3.33;;;62.80;20.90;;;;;;5072825;28;20514;-70
2022/06/28 10:01:50;;;;;;;3.67;3.47;;;62.80;21.00;;;;;;5072611;28;20441;-71
2022/06/28 10:04:18;;;;;;;3.13;3.03;;;62.60;20.40;;;;;;5072315;28;20404;-71
2022/06/28 10:06:43;;;;;;;3.40;3.20;;;62.70;20.90;;;;;;5072532;28;20477;-71
2022/06/28 10:09:09;;;;;;;3.40;3.20;;;62.60;20.90;;;;;;5072396;28;20435;-71
2022/06/28 10:17:39;;;;;;;3.40;3.30;;;62.60;20.90;;;;;;5072368;28;20453;-71
2022/06/28 10:20:09;;;;;;;3.20;3.10;;;62.60;21.10;;;;;;5072277;28;20432;-71
2022/06/28 10:22:34;;;;;;;3.53;3.30;;;62.80;21.10;;;;;;5072110;28;20843;-71
2022/06/28 10:25:01;;;;;;;3.10;3.00;;;62.90;21.00;;;;;;5071764;28;20542;-71
2022/06/28 10:27:29;;;;;;;3.67;3.57;;;62.90;21.00;;;;;;5072127;28;20182;-71
2022/06/28 10:30:00;;;;;;;3.83;3.63;;;62.90;21.10;;;;;;5071082;28;20964;-71
2022/06/28 10:32:45;;;;;;;3.83;3.70;;;62.90;20.50;;;;;;5072024;28;20404;-71
2022/06/28 10:35:30;;;;;;;3.87;3.67;;;62.80;20.40;;;;;;5071806;28;20815;-71
2022/06/28 10:38:08;;;;;;;3.80;3.60;;;62.50;19.80;;;;;;5071864;28;20459;-70
2022/06/28 10:40:47;;;;;;;2.90;2.80;;;62.00;19.10;;;;;;5071868;28;20933;-71
2022/06/28 10:43:14;;;;;;;3.20;3.10;;;61.60;19.20;;;;;;5071982;28;20404;-71
2022/06/28 10:46:05;;;;;;;3.40;3.20;;;61.10;18.80;;;;;;5071530;28;20443;-71
2022/06/28 10:48:52;;;;;;;3.00;2.80;;;60.80;19.20;;;;;;5070970;28;20446;-71
2022/06/28 10:51:19;;;;;;;2.80;2.70;;;60.70;19.40;;;;;;5057559;28;20431;-71
2022/06/28 10:54:01;;;;;;;3.00;2.90;;;60.50;19.10;;;;;;5071304;28;20411;-71
2022/06/28 10:56:30;;;;;;;2.60;2.50;;;60.30;19.00;;;;;;5071471;28;20934;-71
2022/06/28 10:59:05;;;;;;;3.13;2.80;;;60.10;18.80;;;;;;5071795;28;20457;-71
2022/06/28 11:01:40;;;;;;;2.90;2.70;;;60.10;19.30;;;;;;5071761;28;20426;-71
2022/06/28 11:04:21;;;;;;;3.03;2.50;;;60.20;19.30;;;;;;5071622;28;20399;-71
2022/06/28 11:07:21;;;;;;;2.60;2.50;;;60.20;19.20;;;;;;5071511;28;20443;-71
2022/06/28 11:09:58;;;;;;;2.50;2.40;;;60.00;18.50;;;;;;5071688;28;20434;-70
2022/06/28 11:12:30;;;;;;;2.30;2.20;;;59.80;18.60;;;;;;5071557;28;20433;-70
2022/06/28 11:15:01;;;;;;;2.40;2.30;;;59.60;18.70;;;;;;5071304;28;20930;-71
2022/06/28 11:17:27;;;;;;;2.50;2.40;;;59.50;18.70;;;;;;5070179;28;20482;-71
2022/06/28 11:19:57;;;;;;;2.50;2.40;;;59.40;18.40;;;;;;5071577;28;20418;-71
2022/06/28 11:22:57;;;;;;;2.60;2.50;;;59.50;19.00;;;;;;5071487;28;20487;-71
2022/06/28 11:25:25;;;;;;;3.47;3.27;;;59.70;19.60;;;;;;4989474;28;20451;-71
2022/06/28 11:27:58;;;;;;;2.80;2.60;;;59.80;19.10;;;;;;5055422;28;20490;-71
2022/06/28 11:30:27;;;;;;;2.83;2.63;;;60.00;19.40;;;;;;5071508;28;20396;-71
2022/06/28 11:32:55;;;;;;;2.73;2.60;;;60.10;19.10;;;;;;5071930;28;20403;-70
2022/06/28 11:35:23;;;;;;;2.60;2.50;;;60.00;18.80;;;;;;5071139;28;20403;-71
2022/06/28 11:38:02;;;;;;;2.80;2.70;;;59.70;18.30;;;;;;5071306;28;20431;-70
2022/06/28 11:40:29;;;;;;;2.60;2.50;;;59.30;18.20;;;;;;5071365;28;20809;-71
2022/06/28 11:43:04;;;;;;;2.50;2.40;;;59.10;18.40;;;;;;5071387;28;20412;-71
2022/06/28 11:45:31;;;;;;;2.50;2.30;;;59.30;18.90;;;;;;5070869;28;20475;-71
2022/06/28 11:48:02;;;;;;;2.43;2.33;;;59.30;18.60;;;;;;5069853;28;20444;-71
2022/06/28 11:50:28;;;;;;;2.70;2.50;;;59.20;18.70;;;;;;5071199;28;20892;-72
2022/06/28 11:52:56;;;;;;;2.43;2.23;;;59.10;19.00;;;;;;5071111;28;20456;-70
2022/06/28 11:55:41;;;;;;;2.93;2.73;;;59.00;18.30;;;;;;5069538;28;20596;-70
2022/06/28 11:58:14;;;;;;;2.13;2.03;;;58.70;18.40;;;;;;5071111;28;20420;-71
2022/06/28 12:00:59;;;;;;;2.30;2.20;;;58.70;18.60;;;;;;5073134;28;20469;-70
2022/06/28 12:03:25;;;;;;;2.10;2.00;;;58.80;19.00;;;;;;5074940;28;20790;-70
2022/06/28 12:05:58;;;;;;;2.40;2.20;;;58.90;19.20;;;;;;5074493;28;20437;-70
2022/06/28 12:08:51;;;;;;;2.10;2.00;;;58.50;19.00;;;;;;5074860;28;20535;-70
2022/06/28 12:11:31;;;;;;;2.23;2.10;;;58.10;18.40;;;;;;5074776;28;20406;-70
2022/06/28 12:14:14;;;;;;;2.30;2.10;;;58.20;19.00;;;;;;5074658;28;20441;-71
2022/06/28 12:16:59;;;;;;;2.17;2.07;;;58.30;19.20;;;;;;5074640;28;20741;-70
2022/06/28 12:19:33;;;;;;;2.00;1.90;;;58.50;19.60;;;;;;5074642;28;20410;-70
2022/06/28 12:22:13;;;;;;;2.00;1.90;;;58.70;19.80;;;;;;5074507;28;20755;-71
2022/06/28 12:24:55;;;;;;;2.27;2.17;;;58.80;19.50;;;;;;5074089;28;20408;-71
2022/06/28 12:27:25;;;;;;;2.30;2.20;;;58.50;19.40;;;;;;5074371;28;20913;-71
2022/06/28 12:29:52;;;;;;;2.20;2.10;;;58.20;19.10;;;;;;5074455;28;20415;-70
2022/06/28 12:32:18;;;;;;;2.57;2.37;;;58.00;19.10;;;;;;5074235;28;20392;-70
2022/06/28 12:34:44;;;;;;;1.97;1.87;;;57.90;19.30;;;;;;5073984;28;21373;-70
2022/06/28 12:37:10;;;;;;;1.90;1.80;;;57.90;19.50;;;;;;5074063;28;20432;-70
2022/06/28 12:39:36;;;;;;;2.40;2.20;;;58.10;19.80;;;;;;5074249;28;20242;-71
2022/06/28 12:42:02;;;;;;;2.00;1.90;;;58.10;19.60;;;;;;5074104;28;20428;-70
2022/06/28 12:44:28;;;;;;;2.00;1.90;;;57.70;18.60;;;;;;5073758;28;20400;-70
2022/06/28 12:46:53;;;;;;;1.90;1.80;;;56.80;18.60;;;;;;5074007;28;20798;-71
2022/06/28 12:49:20;;;;;;;1.97;1.87;;;56.50;19.30;;;;;;5073892;28;20194;-70
2022/06/28 12:51:46;;;;;;;2.00;1.90;;;56.50;19.70;;;;;;5074045;28;20674;-70
2022/06/28 12:54:11;;;;;;;1.80;1.70;;;56.50;19.70;;;;;;5073731;28;20443;-70
2022/06/28 12:56:37;;;;;;;1.90;1.80;;;56.50;19.90;;;;;;5072580;28;20173;-70
2022/06/28 12:59:03;;;;;;;1.73;1.63;;;56.40;19.90;;;;;;5073790;28;20186;-70
2022/06/28 13:01:29;;;;;;;1.73;1.63;;;55.00;19.10;;;;;;5073905;28;20492;-70
2022/06/28 13:03:54;;;;;;;1.70;1.60;;;53.20;18.80;;;;;;5073661;28;20177;-70
2022/06/28 13:06:21;;;;;;;1.50;1.40;;;52.10;19.50;;;;;;5073264;28;20198;-70